createdAt,value
2022-09-02T00:00:31.144Z,995.77
2022-09-02T00:01:31.137Z,995.77
2022-09-02T00:02:31.258Z,995.76
2022-09-02T00:03:31.487Z,995.77
2022-09-02T00:04:31.118Z,995.78
2022-09-02T00:05:31.115Z,995.78
2022-09-02T00:06:31.109Z,995.82
2022-09-02T00:07:31.103Z,995.79
2022-09-02T00:08:31.079Z,995.77
2022-09-02T00:09:31.101Z,995.75
2022-09-02T00:10:31.273Z,995.74
2022-09-02T00:11:31.070Z,995.72
2022-09-02T00:12:31.070Z,995.77
2022-09-02T00:13:31.048Z,995.75
2022-09-02T00:14:31.045Z,995.75
2022-09-02T00:15:31.068Z,995.75
2022-09-02T00:16:31.086Z,995.75
2022-09-02T00:17:31.015Z,995.72
2022-09-02T00:18:31.021Z,995.75
2022-09-02T00:19:30.994Z,995.71
2022-09-02T00:20:30.992Z,995.69
2022-09-02T00:21:30.979Z,995.71
2022-09-02T00:22:30.981Z,995.72
2022-09-02T00:23:30.969Z,995.69
2022-09-02T00:24:30.971Z,995.67
2022-09-02T00:25:30.967Z,995.68
2022-09-02T00:26:30.957Z,995.66
2022-09-02T00:27:30.944Z,995.66
2022-09-02T00:28:30.930Z,995.71
2022-09-02T00:29:30.955Z,995.69
2022-09-02T00:30:30.923Z,995.68
2022-09-02T00:31:30.954Z,995.73
2022-09-02T00:32:30.911Z,995.66
2022-09-02T00:33:30.916Z,995.68
2022-09-02T00:34:30.890Z,995.67
2022-09-02T00:35:31.081Z,995.72
2022-09-02T00:36:31.077Z,995.67
2022-09-02T00:37:30.854Z,995.68
2022-09-02T00:38:30.850Z,995.69
2022-09-02T00:39:30.855Z,995.68
2022-09-02T00:40:30.932Z,995.67
2022-09-02T00:41:30.838Z,995.65
2022-09-02T00:42:30.831Z,995.68
2022-09-02T00:43:31.019Z,995.65
2022-09-02T00:44:30.815Z,995.62
2022-09-02T00:45:31.076Z,995.63
2022-09-02T00:46:30.803Z,995.62
2022-09-02T00:47:30.793Z,995.62
2022-09-02T00:48:30.791Z,995.65
2022-09-02T00:49:30.800Z,995.61
2022-09-02T00:50:30.753Z,995.63
2022-09-02T00:51:30.773Z,995.64
2022-09-02T00:52:30.749Z,995.67
2022-09-02T00:53:30.749Z,995.64
2022-09-02T00:54:30.739Z,995.67
2022-09-02T00:55:30.927Z,995.62
2022-09-02T00:56:30.735Z,995.64
2022-09-02T00:57:30.708Z,995.62
2022-09-02T00:58:30.708Z,995.62
2022-09-02T00:59:30.701Z,995.64
2022-09-02T01:00:34.450Z,995.64
2022-09-02T01:01:30.824Z,995.64
2022-09-02T01:02:30.679Z,995.67
2022-09-02T01:03:30.672Z,995.65
2022-09-02T01:04:30.704Z,995.67
2022-09-02T01:05:30.647Z,995.63
2022-09-02T01:06:30.637Z,995.63
2022-09-02T01:07:30.629Z,995.57
2022-09-02T01:08:30.836Z,995.55
2022-09-02T01:09:30.807Z,995.57
2022-09-02T01:10:30.605Z,995.54
2022-09-02T01:11:30.597Z,995.55
2022-09-02T01:12:30.594Z,995.58
2022-09-02T01:13:30.588Z,995.53
2022-09-02T01:14:30.571Z,995.51
2022-09-02T01:15:30.570Z,995.54
2022-09-02T01:16:30.573Z,995.53
2022-09-02T01:17:30.550Z,995.51
2022-09-02T01:18:30.739Z,995.49
2022-09-02T01:19:30.543Z,995.53
2022-09-02T01:20:30.552Z,995.51
2022-09-02T01:21:30.523Z,995.52
2022-09-02T01:22:30.491Z,995.48
2022-09-02T01:23:32.353Z,995.48
2022-09-02T01:24:30.490Z,995.48
2022-09-02T01:25:30.494Z,995.48
2022-09-02T01:26:30.500Z,995.47
2022-09-02T01:27:30.488Z,995.49
2022-09-02T01:28:30.465Z,995.45
2022-09-02T01:29:30.481Z,995.44
2022-09-02T01:30:30.485Z,995.49
2022-09-02T01:31:30.485Z,995.44
2022-09-02T01:32:30.648Z,995.45
2022-09-02T01:33:31.727Z,995.41
2022-09-02T01:34:30.414Z,995.39
2022-09-02T01:35:30.410Z,995.44
2022-09-02T01:36:30.388Z,995.41
2022-09-02T01:37:30.391Z,995.45
2022-09-02T01:38:30.389Z,995.41
2022-09-02T01:39:30.379Z,995.43
2022-09-02T01:40:30.443Z,995.39
2022-09-02T01:41:30.367Z,995.38
2022-09-02T01:42:30.364Z,995.39
2022-09-02T01:43:30.348Z,995.36
2022-09-02T01:44:30.337Z,995.37
2022-09-02T01:45:30.366Z,995.36
2022-09-02T01:46:30.369Z,995.33
2022-09-02T01:47:30.341Z,995.37
2022-09-02T01:48:30.326Z,995.35
2022-09-02T01:49:30.351Z,995.38
2022-09-02T01:50:30.304Z,995.35
2022-09-02T01:51:30.302Z,995.36
2022-09-02T01:52:30.261Z,995.36
2022-09-02T01:53:30.275Z,995.36
2022-09-02T01:54:30.252Z,995.36
2022-09-02T01:55:30.250Z,995.33
2022-09-02T01:56:30.632Z,995.31
2022-09-02T01:57:30.243Z,995.33
2022-09-02T01:58:30.207Z,995.32
2022-09-02T01:59:30.233Z,995.27
2022-09-02T02:00:30.248Z,995.28
2022-09-02T02:01:30.348Z,995.23
2022-09-02T02:02:30.178Z,995.24
2022-09-02T02:03:30.204Z,995.26
2022-09-02T02:04:30.157Z,995.25
2022-09-02T02:05:30.147Z,995.20
2022-09-02T02:06:30.164Z,995.23
2022-09-02T02:07:30.168Z,995.22
2022-09-02T02:08:30.196Z,995.21
2022-09-02T02:09:30.169Z,995.23
2022-09-02T02:10:30.165Z,995.24
2022-09-02T02:11:30.131Z,995.24
2022-09-02T02:12:30.112Z,995.20
2022-09-02T02:13:30.127Z,995.17
2022-09-02T02:14:30.101Z,995.19
2022-09-02T02:16:09.748Z,995.18
2022-09-02T02:17:09.656Z,995.18
2022-09-02T02:18:09.660Z,995.16
2022-09-02T02:19:09.632Z,995.15
2022-09-02T02:20:09.877Z,995.12
2022-09-02T02:21:09.668Z,995.11
2022-09-02T02:22:09.674Z,995.11
2022-09-02T02:23:09.652Z,995.07
2022-09-02T02:24:09.623Z,995.13
2022-09-02T02:25:09.792Z,995.07
2022-09-02T02:26:09.625Z,995.06
2022-09-02T02:27:09.570Z,995.09
2022-09-02T02:28:09.618Z,995.06
2022-09-02T02:29:09.573Z,995.09
2022-09-02T02:30:09.546Z,995.07
2022-09-02T02:31:09.619Z,995.12
2022-09-02T02:32:09.587Z,995.12
2022-09-02T02:33:09.558Z,995.11
2022-09-02T02:34:09.523Z,995.14
2022-09-02T02:35:09.676Z,995.13
2022-09-02T02:36:09.549Z,995.15
2022-09-02T02:37:09.499Z,995.14
2022-09-02T02:38:09.491Z,995.12
2022-09-02T02:39:09.498Z,995.13
2022-09-02T02:40:09.709Z,995.12
2022-09-02T02:41:09.447Z,995.11
2022-09-02T02:42:09.463Z,995.07
2022-09-02T02:43:09.479Z,995.08
2022-09-02T02:44:09.468Z,995.09
2022-09-02T02:45:09.581Z,995.06
2022-09-02T02:46:09.545Z,995.07
2022-09-02T02:47:09.454Z,995.04
2022-09-02T02:48:09.408Z,995.07
2022-09-02T02:49:09.420Z,995.06
2022-09-02T02:50:09.577Z,995.05
2022-09-02T02:51:09.567Z,995.08
2022-09-02T02:52:09.370Z,995.07
2022-09-02T02:53:09.379Z,995.06
2022-09-02T02:54:09.389Z,995.06
2022-09-02T02:55:09.499Z,995.05
2022-09-02T02:56:09.334Z,995.07
2022-09-02T02:57:09.385Z,995.04
2022-09-02T02:58:09.336Z,995.04
2022-09-02T02:59:09.318Z,995.03
2022-09-02T03:00:09.464Z,994.99
2022-09-02T03:01:09.319Z,995.01
2022-09-02T03:02:09.449Z,995.04
2022-09-02T03:03:09.353Z,995.01
2022-09-02T03:04:09.283Z,995.01
2022-09-02T03:05:09.405Z,995.05
2022-09-02T03:06:09.259Z,995.01
2022-09-02T03:07:09.260Z,995.05
2022-09-02T03:08:09.290Z,995.03
2022-09-02T03:09:09.249Z,995.00
2022-09-02T03:10:09.377Z,995.00
2022-09-02T03:11:09.238Z,995.02
2022-09-02T03:12:09.202Z,995.01
2022-09-02T03:13:09.230Z,994.98
2022-09-02T03:14:09.185Z,994.99
2022-09-02T03:15:09.347Z,995.01
2022-09-02T03:16:09.252Z,995.00
2022-09-02T03:17:09.166Z,995.02
2022-09-02T03:18:09.146Z,995.00
2022-09-02T03:19:09.160Z,995.01
2022-09-02T03:20:09.485Z,995.01
2022-09-02T03:21:09.158Z,995.03
2022-09-02T03:22:09.120Z,995.07
2022-09-02T03:23:09.137Z,995.03
2022-09-02T03:24:09.122Z,995.05
2022-09-02T03:25:09.273Z,995.05
2022-09-02T03:26:09.069Z,995.07
2022-09-02T03:27:09.066Z,995.01
2022-09-02T03:28:09.053Z,995.02
2022-09-02T03:29:09.099Z,995.00
2022-09-02T03:30:09.213Z,995.06
2022-09-02T03:31:09.165Z,995.04
2022-09-02T03:32:09.019Z,995.07
2022-09-02T03:33:09.033Z,995.03
2022-09-02T03:34:09.061Z,995.04
2022-09-02T03:35:09.149Z,995.03
2022-09-02T03:36:09.044Z,995.04
2022-09-02T03:37:09.001Z,995.04
2022-09-02T03:38:09.224Z,995.03
2022-09-02T03:39:10.063Z,994.98
2022-09-02T03:40:09.215Z,995.01
2022-09-02T03:41:08.941Z,995.00
2022-09-02T03:42:13.321Z,995.01
2022-09-02T03:43:08.940Z,995.02
2022-09-02T03:44:08.921Z,994.99
2022-09-02T03:45:09.088Z,994.98
2022-09-02T03:46:08.973Z,994.99
2022-09-02T03:47:08.962Z,995.01
2022-09-02T03:48:08.946Z,994.97
2022-09-02T03:49:08.885Z,994.93
2022-09-02T03:50:09.014Z,994.92
2022-09-02T03:51:09.080Z,994.94
2022-09-02T03:52:08.975Z,994.95
2022-09-02T03:53:08.855Z,994.91
2022-09-02T03:54:08.849Z,994.92
2022-09-02T03:55:08.995Z,994.92
2022-09-02T03:56:08.843Z,994.95
2022-09-02T03:57:08.835Z,994.93
2022-09-02T03:58:08.821Z,994.96
2022-09-02T03:59:08.822Z,994.93
2022-09-02T04:00:08.958Z,994.95
2022-09-02T04:01:08.816Z,994.92
2022-09-02T04:02:08.885Z,994.91
2022-09-02T04:03:08.900Z,994.94
2022-09-02T04:04:08.844Z,994.92
2022-09-02T04:05:10.344Z,994.95
2022-09-02T04:06:08.727Z,994.94
2022-09-02T04:07:08.724Z,994.94
2022-09-02T04:08:08.773Z,994.97
2022-09-02T04:09:08.793Z,994.96
2022-09-02T04:10:09.158Z,994.95
2022-09-02T04:11:08.686Z,994.99
2022-09-02T04:12:08.698Z,995.00
2022-09-02T04:13:08.720Z,995.01
2022-09-02T04:14:08.677Z,995.02
2022-09-02T04:15:08.792Z,995.02
2022-09-02T04:16:10.674Z,995.01
2022-09-02T04:17:08.666Z,994.97
2022-09-02T04:18:08.829Z,994.99
2022-09-02T04:19:09.088Z,995.00
2022-09-02T04:20:08.789Z,994.99
2022-09-02T04:21:08.614Z,995.03
2022-09-02T04:22:08.629Z,994.96
2022-09-02T04:23:08.806Z,994.99
2022-09-02T04:24:08.628Z,994.99
2022-09-02T04:25:08.697Z,994.99
2022-09-02T04:26:08.568Z,995.00
2022-09-02T04:27:08.540Z,994.99
2022-09-02T04:28:08.528Z,995.01
2022-09-02T04:29:08.535Z,995.00
2022-09-02T04:30:08.694Z,995.00
2022-09-02T04:31:08.626Z,994.97
2022-09-02T04:32:08.524Z,995.00
2022-09-02T04:33:08.548Z,995.01
2022-09-02T04:34:08.556Z,994.96
2022-09-02T04:35:08.611Z,994.98
2022-09-02T04:36:08.528Z,994.98
2022-09-02T04:37:08.459Z,995.01
2022-09-02T04:38:08.468Z,994.99
2022-09-02T04:39:08.457Z,995.01
2022-09-02T04:40:08.673Z,995.00
2022-09-02T04:41:08.435Z,994.98
2022-09-02T04:42:08.438Z,994.99
2022-09-02T04:43:08.394Z,995.00
2022-09-02T04:44:08.464Z,994.99
2022-09-02T04:45:08.522Z,994.98
2022-09-02T04:46:08.524Z,994.95
2022-09-02T04:47:08.394Z,994.96
2022-09-02T04:48:08.376Z,994.95
2022-09-02T04:49:08.352Z,994.96
2022-09-02T04:50:08.447Z,994.97
2022-09-02T04:51:08.362Z,994.98
2022-09-02T04:52:08.351Z,995.01
2022-09-02T04:53:08.336Z,995.00
2022-09-02T04:54:08.318Z,994.97
2022-09-02T04:55:08.347Z,994.97
2022-09-02T04:56:08.302Z,995.00
2022-09-02T04:57:08.285Z,995.01
2022-09-02T04:58:08.344Z,995.01
2022-09-02T04:59:08.261Z,994.99
2022-09-02T05:00:08.420Z,995.02
2022-09-02T05:01:08.802Z,995.02
2022-09-02T05:02:08.427Z,995.06
2022-09-02T05:03:08.224Z,995.03
2022-09-02T05:04:08.231Z,995.02
2022-09-02T05:05:08.348Z,995.01
2022-09-02T05:06:08.286Z,995.00
2022-09-02T05:07:08.187Z,995.00
2022-09-02T05:08:08.330Z,995.04
2022-09-02T05:09:08.167Z,995.04
2022-09-02T05:10:08.321Z,995.04
2022-09-02T05:11:08.151Z,995.05
2022-09-02T05:12:08.195Z,995.07
2022-09-02T05:13:08.188Z,995.06
2022-09-02T05:14:08.147Z,995.07
2022-09-02T05:15:08.297Z,995.06
2022-09-02T05:16:08.241Z,995.10
2022-09-02T05:17:08.221Z,995.06
2022-09-02T05:18:08.163Z,995.10
2022-09-02T05:19:08.235Z,995.13
2022-09-02T05:20:08.275Z,995.11
2022-09-02T05:21:08.090Z,995.14
2022-09-02T05:22:08.105Z,995.12
2022-09-02T05:23:08.396Z,995.12
2022-09-02T05:24:08.113Z,995.12
2022-09-02T05:25:08.435Z,995.12
2022-09-02T05:26:08.469Z,995.10
2022-09-02T05:27:08.073Z,995.11
2022-09-02T05:28:08.026Z,995.09
2022-09-02T05:29:08.047Z,995.12
2022-09-02T05:30:08.205Z,995.10
2022-09-02T05:31:08.112Z,995.07
2022-09-02T05:32:08.037Z,995.06
2022-09-02T05:33:08.020Z,995.06
2022-09-02T05:34:08.004Z,995.08
2022-09-02T05:35:08.150Z,995.12
2022-09-02T05:36:08.004Z,995.13
2022-09-02T05:37:07.998Z,995.15
2022-09-02T05:38:07.958Z,995.13
2022-09-02T05:39:07.951Z,995.12
2022-09-02T05:40:08.185Z,995.09
2022-09-02T05:41:07.972Z,995.10
2022-09-02T05:42:08.002Z,995.08
2022-09-02T05:43:07.971Z,995.07
2022-09-02T05:44:07.922Z,995.06
2022-09-02T05:45:08.071Z,995.09
2022-09-02T05:46:07.924Z,995.07
2022-09-02T05:47:07.883Z,995.09
2022-09-02T05:48:07.908Z,995.13
2022-09-02T05:49:07.941Z,995.13
2022-09-02T05:50:08.045Z,995.11
2022-09-02T05:51:07.914Z,995.11
2022-09-02T05:52:07.838Z,995.12
2022-09-02T05:53:12.347Z,995.12
2022-09-02T05:54:07.858Z,995.10
2022-09-02T05:55:07.954Z,995.11
2022-09-02T05:56:07.859Z,995.11
2022-09-02T05:57:07.827Z,995.09
2022-09-02T05:58:07.821Z,995.09
2022-09-02T05:59:07.984Z,995.11
2022-09-02T06:00:07.989Z,995.08
2022-09-02T06:01:07.767Z,995.13
2022-09-02T06:02:07.953Z,995.09
2022-09-02T06:03:07.848Z,995.09
2022-09-02T06:04:07.757Z,995.11
2022-09-02T06:05:07.898Z,995.10
2022-09-02T06:06:07.734Z,995.14
2022-09-02T06:07:07.730Z,995.12
2022-09-02T06:08:07.720Z,995.08
2022-09-02T06:09:07.731Z,995.08
2022-09-02T06:10:07.888Z,995.08
2022-09-02T06:11:07.726Z,995.11
2022-09-02T06:12:07.715Z,995.08
2022-09-02T06:13:07.710Z,995.06
2022-09-02T06:14:07.721Z,995.05
2022-09-02T06:15:07.842Z,995.04
2022-09-02T06:16:07.722Z,995.05
2022-09-02T06:17:07.654Z,995.04
2022-09-02T06:18:07.686Z,995.02
2022-09-02T06:19:07.663Z,995.05
2022-09-02T06:20:07.783Z,995.04
2022-09-02T06:21:07.633Z,995.06
2022-09-02T06:22:07.669Z,995.09
2022-09-02T06:23:07.646Z,995.04
2022-09-02T06:24:07.619Z,995.02
2022-09-02T06:25:07.773Z,995.03
2022-09-02T06:26:07.619Z,995.09
2022-09-02T06:27:07.584Z,995.04
2022-09-02T06:28:07.642Z,995.07
2022-09-02T06:29:07.610Z,995.05
2022-09-02T06:30:07.759Z,995.08
2022-09-02T06:31:07.664Z,995.05
2022-09-02T06:32:07.572Z,995.07
2022-09-02T06:33:07.684Z,995.07
2022-09-02T06:34:07.593Z,995.10
2022-09-02T06:35:07.728Z,995.05
2022-09-02T06:36:07.543Z,995.05
2022-09-02T06:37:07.547Z,995.07
2022-09-02T06:38:07.508Z,995.04
2022-09-02T06:39:07.533Z,995.06
2022-09-02T06:40:07.756Z,995.06
2022-09-02T06:41:07.569Z,995.07
2022-09-02T06:42:07.517Z,995.04
2022-09-02T06:43:07.601Z,995.03
2022-09-02T06:44:07.481Z,995.08
2022-09-02T06:45:07.638Z,995.02
2022-09-02T06:46:07.952Z,995.04
2022-09-02T06:47:07.477Z,995.03
2022-09-02T06:48:08.392Z,995.04
2022-09-02T06:49:07.480Z,995.01
2022-09-02T06:50:07.601Z,995.04
2022-09-02T06:51:07.481Z,995.04
2022-09-02T06:52:07.419Z,994.96
2022-09-02T06:53:07.529Z,994.99
2022-09-02T06:54:07.405Z,994.99
2022-09-02T06:55:07.789Z,994.97
2022-09-02T06:56:07.392Z,994.98
2022-09-02T06:57:07.417Z,994.99
2022-09-02T06:58:07.423Z,994.99
2022-09-02T06:59:07.390Z,995.01
2022-09-02T07:01:07.556Z,995.02
2022-09-02T07:02:07.681Z,995.05
2022-09-02T07:03:07.374Z,995.04
2022-09-02T07:04:07.505Z,995.06
2022-09-02T07:05:07.533Z,995.04
2022-09-02T07:06:07.369Z,995.05
2022-09-02T07:07:07.361Z,995.05
2022-09-02T07:08:07.391Z,995.02
2022-09-02T07:09:07.407Z,995.04
2022-09-02T07:10:07.468Z,995.06
2022-09-02T07:11:07.358Z,995.07
2022-09-02T07:12:07.324Z,995.04
2022-09-02T07:13:07.395Z,995.02
2022-09-02T07:14:07.329Z,995.03
2022-09-02T07:15:07.466Z,995.03
2022-09-02T07:16:07.317Z,995.03
2022-09-02T07:17:07.343Z,995.03
2022-09-02T07:18:07.293Z,995.03
2022-09-02T07:19:12.503Z,995.04
2022-09-02T07:20:07.452Z,995.05
2022-09-02T07:21:07.273Z,995.05
2022-09-02T07:22:07.282Z,995.03
2022-09-02T07:23:07.273Z,995.04
2022-09-02T07:24:07.270Z,995.07
2022-09-02T07:25:07.397Z,995.03
2022-09-02T07:26:07.231Z,995.05
2022-09-02T07:27:07.220Z,995.05
2022-09-02T07:28:07.253Z,995.05
2022-09-02T07:29:07.261Z,995.07
2022-09-02T07:30:07.373Z,995.06
2022-09-02T07:31:07.285Z,995.04
2022-09-02T07:32:07.205Z,995.08
2022-09-02T07:33:07.299Z,995.07
2022-09-02T07:34:07.196Z,995.05
2022-09-02T07:35:07.349Z,995.06
2022-09-02T07:36:12.238Z,995.09
2022-09-02T07:37:10.677Z,995.06
2022-09-02T07:38:07.171Z,995.03
2022-09-02T07:39:07.181Z,995.02
2022-09-02T07:40:07.413Z,995.06
2022-09-02T07:41:07.187Z,995.07
2022-09-02T07:42:07.542Z,995.05
2022-09-02T07:43:07.186Z,995.09
2022-09-02T07:44:07.188Z,995.25
2022-09-02T07:45:07.282Z,995.36
2022-09-02T07:46:07.554Z,995.37
2022-09-02T07:47:07.150Z,995.33
2022-09-02T07:48:07.141Z,995.32
2022-09-02T07:49:09.117Z,995.28
2022-09-02T07:50:16.647Z,995.15
2022-09-02T07:51:07.132Z,995.12
2022-09-02T07:52:07.113Z,995.16
2022-09-02T07:53:07.133Z,995.19
2022-09-02T07:54:07.114Z,995.17
2022-09-02T07:55:09.347Z,995.19
2022-09-02T07:56:07.121Z,995.18
2022-09-02T07:57:07.101Z,995.19
2022-09-02T07:58:07.103Z,995.18
2022-09-02T07:59:07.321Z,995.20
2022-09-02T08:00:07.219Z,995.18
2022-09-02T08:01:07.453Z,995.13
2022-09-02T08:02:07.190Z,995.15
2022-09-02T08:04:07.142Z,995.15
2022-09-02T08:05:07.482Z,995.12
2022-09-02T08:06:07.099Z,995.17
2022-09-02T08:07:07.098Z,995.16
2022-09-02T08:08:07.109Z,995.16
2022-09-02T08:09:07.117Z,995.20
2022-09-02T08:10:07.288Z,995.14
2022-09-02T08:11:07.179Z,995.12
2022-09-02T08:12:07.137Z,995.21
2022-09-02T08:13:07.093Z,995.25
2022-09-02T08:14:07.224Z,995.28
2022-09-02T08:15:07.202Z,995.27
2022-09-02T08:16:07.368Z,995.19
2022-09-02T08:17:07.119Z,995.22
2022-09-02T08:18:07.174Z,995.18
2022-09-02T08:19:07.116Z,995.22
2022-09-02T08:20:10.433Z,995.23
2022-09-02T08:21:07.114Z,995.24
2022-09-02T08:22:07.099Z,995.22
2022-09-02T08:23:12.391Z,995.22
2022-09-02T08:24:07.441Z,995.22
2022-09-02T08:25:07.373Z,995.23
2022-09-02T08:26:07.097Z,995.23
2022-09-02T08:27:07.107Z,995.20
2022-09-02T08:28:07.315Z,995.23
2022-09-02T08:29:07.124Z,995.18
2022-09-02T08:30:08.706Z,995.18
2022-09-02T08:31:07.124Z,995.21
2022-09-02T08:32:07.331Z,995.17
2022-09-02T08:33:07.118Z,995.17
2022-09-02T08:34:07.150Z,995.17
2022-09-02T08:35:07.163Z,995.16
2022-09-02T08:36:07.097Z,995.22
2022-09-02T08:37:07.138Z,995.18
2022-09-02T08:38:07.119Z,995.17
2022-09-02T08:39:07.101Z,995.20
2022-09-02T08:40:07.338Z,995.18
2022-09-02T08:41:07.109Z,995.14
2022-09-02T08:42:07.147Z,995.16
2022-09-02T08:43:07.109Z,995.17
2022-09-02T08:44:07.136Z,995.15
2022-09-02T08:45:07.684Z,995.13
2022-09-02T08:46:07.317Z,995.10
2022-09-02T08:47:07.103Z,995.12
2022-09-02T08:48:07.184Z,995.09
2022-09-02T08:49:07.096Z,995.08
2022-09-02T08:50:07.262Z,995.10
2022-09-02T08:51:07.098Z,995.05
2022-09-02T08:52:07.121Z,995.06
2022-09-02T08:53:07.094Z,995.08
2022-09-02T08:54:07.101Z,995.05
2022-09-02T08:55:07.282Z,995.01
2022-09-02T08:56:07.182Z,995.03
2022-09-02T08:57:07.147Z,994.98
2022-09-02T08:58:07.145Z,994.97
2022-09-02T08:59:07.163Z,994.98
2022-09-02T09:00:07.424Z,994.93
2022-09-02T09:01:07.303Z,994.93
2022-09-02T09:02:07.158Z,994.91
2022-09-02T09:03:07.209Z,994.92
2022-09-02T09:04:07.163Z,994.89
2022-09-02T09:05:07.285Z,994.88
2022-09-02T09:06:07.106Z,994.87
2022-09-02T09:07:07.150Z,994.88
2022-09-02T09:08:09.630Z,994.90
2022-09-02T09:09:07.233Z,994.87
2022-09-02T09:10:07.270Z,994.87
2022-09-02T09:11:07.110Z,994.87
2022-09-02T09:12:07.129Z,994.81
2022-09-02T09:13:07.116Z,994.82
2022-09-02T09:14:07.090Z,994.77
2022-09-02T09:15:07.239Z,994.76
2022-09-02T09:16:07.117Z,994.76
2022-09-02T09:17:07.112Z,994.74
2022-09-02T09:18:07.121Z,994.75
2022-09-02T09:19:08.823Z,994.73
2022-09-02T09:20:07.247Z,994.70
2022-09-02T09:21:07.109Z,994.70
2022-09-02T09:22:07.102Z,994.70
2022-09-02T09:23:07.107Z,994.64
2022-09-02T09:24:07.128Z,994.63
2022-09-02T09:25:07.221Z,994.62
2022-09-02T09:26:07.086Z,994.61
2022-09-02T09:27:07.081Z,994.59
2022-09-02T09:28:07.200Z,994.57
2022-09-02T09:29:07.093Z,994.61
2022-09-02T09:30:08.647Z,994.61
2022-09-02T09:31:07.048Z,994.58
2022-09-02T09:32:07.059Z,994.60
2022-09-02T09:33:07.073Z,994.58
2022-09-02T09:34:07.058Z,994.59
2022-09-02T09:35:07.209Z,994.62
2022-09-02T09:36:07.091Z,994.57
2022-09-02T09:37:07.110Z,994.55
2022-09-02T09:38:07.358Z,994.59
2022-09-02T09:39:07.061Z,994.56
2022-09-02T09:40:07.270Z,994.61
2022-09-02T09:41:07.059Z,994.59
2022-09-02T09:42:07.070Z,994.52
2022-09-02T09:43:14.931Z,994.50
2022-09-02T09:44:07.031Z,994.50
2022-09-02T09:45:07.187Z,994.46
2022-09-02T09:46:07.155Z,994.48
2022-09-02T09:47:07.155Z,994.46
2022-09-02T09:48:07.405Z,994.45
2022-09-02T09:49:07.055Z,994.45
2022-09-02T09:50:07.157Z,994.40
2022-09-02T09:51:07.026Z,994.40
2022-09-02T09:52:07.000Z,994.44
2022-09-02T09:53:07.043Z,994.41
2022-09-02T09:54:07.032Z,994.36
2022-09-02T09:55:07.138Z,994.36
2022-09-02T09:56:07.000Z,994.35
2022-09-02T09:57:07.020Z,994.36
2022-09-02T09:58:07.015Z,994.37
2022-09-02T09:59:07.035Z,994.36
2022-09-02T10:00:07.120Z,994.33
2022-09-02T10:01:07.018Z,994.35
2022-09-02T10:02:07.029Z,994.33
2022-09-02T10:03:06.991Z,994.31
2022-09-02T10:04:20.832Z,994.29
2022-09-02T10:05:07.107Z,994.30
2022-09-02T10:06:07.166Z,994.30
2022-09-02T10:07:06.955Z,994.32
2022-09-02T10:08:15.009Z,994.29
2022-09-02T10:09:07.051Z,994.28
2022-09-02T10:10:07.090Z,994.31
2022-09-02T10:11:06.974Z,994.26
2022-09-02T10:12:07.393Z,994.29
2022-09-02T10:13:07.311Z,994.25
2022-09-02T10:14:06.918Z,994.29
2022-09-02T10:15:07.086Z,994.28
2022-09-02T10:16:06.966Z,994.25
2022-09-02T10:17:06.903Z,994.27
2022-09-02T10:18:07.176Z,994.19
2022-09-02T10:19:06.892Z,994.21
2022-09-02T10:20:06.988Z,994.24
2022-09-02T10:21:15.564Z,994.25
2022-09-02T10:22:06.894Z,994.27
2022-09-02T10:23:07.121Z,994.18
2022-09-02T10:24:07.119Z,994.25
2022-09-02T10:25:07.051Z,994.22
2022-09-02T10:26:06.907Z,994.23
2022-09-02T10:27:06.890Z,994.24
2022-09-02T10:28:06.878Z,994.23
2022-09-02T10:29:06.880Z,994.23
2022-09-02T10:30:07.027Z,994.18
2022-09-02T10:31:06.913Z,994.16
2022-09-02T10:32:06.875Z,994.13
2022-09-02T10:33:06.910Z,994.22
2022-09-02T10:34:06.867Z,994.14
2022-09-02T10:35:07.020Z,994.06
2022-09-02T10:36:06.844Z,994.16
2022-09-02T10:37:06.884Z,994.07
2022-09-02T10:38:06.842Z,994.05
2022-09-02T10:39:06.862Z,994.04
2022-09-02T10:40:07.035Z,994.07
2022-09-02T10:41:06.928Z,994.02
2022-09-02T10:42:06.823Z,994.02
2022-09-02T10:43:06.825Z,994.07
2022-09-02T10:44:06.813Z,994.04
2022-09-02T10:45:06.975Z,993.98
2022-09-02T10:46:06.803Z,993.91
2022-09-02T10:47:06.891Z,993.93
2022-09-02T10:48:06.791Z,993.95
2022-09-02T10:49:06.807Z,993.97
2022-09-02T10:50:07.267Z,993.97
2022-09-02T10:51:06.828Z,994.03
2022-09-02T10:52:06.880Z,994.01
2022-09-02T10:53:09.359Z,993.98
2022-09-02T10:54:06.778Z,993.93
2022-09-02T10:55:06.968Z,993.97
2022-09-02T10:56:06.810Z,994.01
2022-09-02T10:57:06.781Z,993.95
2022-09-02T10:58:06.872Z,993.93
2022-09-02T10:59:06.801Z,993.93
2022-09-02T11:00:06.926Z,993.88
2022-09-02T11:01:06.855Z,993.85
2022-09-02T11:02:07.133Z,993.85
2022-09-02T11:03:06.806Z,993.85
2022-09-02T11:04:06.787Z,993.85
2022-09-02T11:05:06.909Z,993.82
2022-09-02T11:06:06.780Z,993.83
2022-09-02T11:07:06.769Z,993.85
2022-09-02T11:08:06.757Z,993.79
2022-09-02T11:09:06.764Z,993.79
2022-09-02T11:10:06.900Z,993.79
2022-09-02T11:11:06.743Z,993.78
2022-09-02T11:12:06.754Z,993.76
2022-09-02T11:13:06.759Z,993.70
2022-09-02T11:14:06.744Z,993.65
2022-09-02T11:15:06.890Z,993.70
2022-09-02T11:16:06.807Z,993.69
2022-09-02T11:17:06.728Z,993.69
2022-09-02T11:18:06.774Z,993.61
2022-09-02T11:19:06.717Z,993.67
2022-09-02T11:20:06.839Z,993.64
2022-09-02T11:21:06.701Z,993.68
2022-09-02T11:22:06.697Z,993.64
2022-09-02T11:23:06.714Z,993.62
2022-09-02T11:24:06.878Z,993.61
2022-09-02T11:25:06.865Z,993.63
2022-09-02T11:26:06.681Z,993.61
2022-09-02T11:27:15.789Z,993.58
2022-09-02T11:28:07.018Z,993.59
2022-09-02T11:29:06.697Z,993.52
2022-09-02T11:30:06.823Z,993.57
2022-09-02T11:31:06.916Z,993.54
2022-09-02T11:32:06.682Z,993.55
2022-09-02T11:33:06.643Z,993.54
2022-09-02T11:34:06.736Z,993.57
2022-09-02T11:35:06.815Z,993.57
2022-09-02T11:36:06.657Z,993.52
2022-09-02T11:37:06.678Z,993.53
2022-09-02T11:38:06.661Z,993.53
2022-09-02T11:39:06.661Z,993.52
2022-09-02T11:40:30.291Z,993.53
2022-09-02T11:42:07.283Z,993.53
2022-09-02T11:43:06.640Z,993.49
2022-09-02T11:44:06.628Z,993.55
2022-09-02T11:45:06.827Z,993.54
2022-09-02T11:46:06.655Z,993.53
2022-09-02T11:47:06.620Z,993.50
2022-09-02T11:48:06.615Z,993.51
2022-09-02T11:49:06.599Z,993.47
2022-09-02T11:50:06.760Z,993.53
2022-09-02T11:51:06.608Z,993.53
2022-09-02T11:52:06.593Z,993.57
2022-09-02T11:53:06.591Z,993.53
2022-09-02T11:54:06.694Z,993.56
2022-09-02T11:55:06.731Z,993.55
2022-09-02T11:56:06.592Z,993.52
2022-09-02T11:57:06.583Z,993.52
2022-09-02T11:58:06.592Z,993.52
2022-09-02T11:59:06.621Z,993.50
2022-09-02T12:00:06.722Z,993.51
2022-09-02T12:01:06.793Z,993.44
2022-09-02T12:02:06.570Z,993.48
2022-09-02T12:03:12.195Z,993.50
2022-09-02T12:05:07.195Z,993.49
2022-09-02T12:06:06.659Z,993.48
2022-09-02T12:07:09.118Z,993.43
2022-09-02T12:08:06.522Z,993.43
2022-09-02T12:09:06.529Z,993.40
2022-09-02T12:10:06.729Z,993.44
2022-09-02T12:11:06.532Z,993.46
2022-09-02T12:12:06.527Z,993.43
2022-09-02T12:13:08.449Z,993.41
2022-09-02T12:14:08.044Z,993.36
2022-09-02T12:15:06.868Z,993.36
2022-09-02T12:16:06.551Z,993.32
2022-09-02T12:17:06.647Z,993.41
2022-09-02T12:18:06.495Z,993.34
2022-09-02T12:19:06.728Z,993.40
2022-09-02T12:20:06.763Z,993.38
2022-09-02T12:21:06.638Z,993.38
2022-09-02T12:22:07.064Z,993.37
2022-09-02T12:23:06.839Z,993.33
2022-09-02T12:24:06.833Z,993.32
2022-09-02T12:25:06.694Z,993.30
2022-09-02T12:26:06.579Z,993.24
2022-09-02T12:27:06.518Z,993.23
2022-09-02T12:28:06.460Z,993.27
2022-09-02T12:29:06.438Z,993.25
2022-09-02T12:30:06.594Z,993.25
2022-09-02T12:31:06.479Z,993.25
2022-09-02T12:32:06.471Z,993.17
2022-09-02T12:33:06.453Z,993.24